Aeroporto :
LOGIN :

Iscrizione | Disclaimer

   EN    FR    IT 

 










Sommario :    VFR   VFR Marginale   IFR   IFR Intensivo   IFR Molto Intensivo
Visibilità : 
Base nubi : 
>= 8 km
>= 3000ft
5 / 8 km
1000 / 3000 ft
1500m / 5 km
500 / 1000 ft
800 / 1500m
200 / 500 ft
< 800m
< 200 ft
Simboli :   Temporali  Nebbia  Neve Forte  Precipitazioni Forti  Vento > 20 kt
SIGMETs :   Varie  Temporali  Ghiacco  Turbolenza  Onda orograficha  Ceneri Vulcaniche






- Altitudine del aeroporto : 352 ft
- Codice IATA : KSD


ESOK - Karlstad

ULTIMO METAR :
  • 151750Z 06007KT 9999 OVC005 02/02 Q1022

METARs OBSOLETI :
  • 151720Z 05006KT 9999 OVC005 02/02 Q1022
  • 151650Z 05009KT 9999 OVC004 02/02 Q1022
  • 151620Z 05009KT 9999 OVC004 02/02 Q1022
  • 151550Z 06009KT 9999 BKN006 02/02 Q1022
  • 151520Z 06008KT 9999 OVC004 02/02 Q1022
  • 151450Z 05009KT 9999 OVC004 02/02 Q1022

TAF TAF ESOK
Valido dal 15 a 18 ore il 15 a 20 ore UTC


151730Z 1518/1520 05008KT 9999 OVC004
PROB40 1518/1520 OVC005



MetMap, La meteo Aeronautica in un colpo d'occhio ! - Copyright ORBIFLY Dicembre 2007 - Disclaimer

ORBIFLY MET'MAP TEAM :

Programmazione e sviluppo : Alexandra Zaïnal
Concezione e sviluppo : Baudouin d'Aumeries
Co-Programmazione e sviluppo : Marc-Olivier Méhu
Supporto tecnico e logistico : Manuel Goepfert
Aiuto per la traduzione : Arnaldo La Scala

Contatto : metmap@orbifly.com




FONTI E CREDITI :

   NOAA